sensor_id;sensor_type;location;lat;lon;timestamp;pressure;altitude;pressure_sealevel;temperature;humidity
6032;BME280;3044;43.232;27.972;2023-03-31T00:02:06;45159.50;;;-143.84;43.65
6032;BME280;3044;43.232;27.972;2023-03-31T00:04:39;45205.22;;;-143.84;43.94
6032;BME280;3044;43.232;27.972;2023-03-31T00:07:12;45210.94;;;-143.84;43.90
6032;BME280;3044;43.232;27.972;2023-03-31T00:09:41;45172.84;;;-143.84;43.76
6032;BME280;3044;43.232;27.972;2023-03-31T00:12:11;45174.75;;;-143.84;43.59
6032;BME280;3044;43.232;27.972;2023-03-31T00:14:38;45180.47;;;-143.84;43.15
6032;BME280;3044;43.232;27.972;2023-03-31T00:17:07;45195.69;;;-143.84;42.96
6032;BME280;3044;43.232;27.972;2023-03-31T00:19:34;45188.06;;;-143.84;43.17
6032;BME280;3044;43.232;27.972;2023-03-31T00:22:02;45207.13;;;-143.84;43.32
6032;BME280;3044;43.232;27.972;2023-03-31T00:24:30;45163.31;;;-143.84;43.56
6032;BME280;3044;43.232;27.972;2023-03-31T00:26:57;45207.13;;;-143.84;43.28
6032;BME280;3044;43.232;27.972;2023-03-31T00:29:24;45169.03;;;-143.84;43.70
6032;BME280;3044;43.232;27.972;2023-03-31T00:31:52;45191.88;;;-143.84;44.10
6032;BME280;3044;43.232;27.972;2023-03-31T00:34:21;45186.16;;;-143.84;43.87
6032;BME280;3044;43.232;27.972;2023-03-31T00:36:48;45174.75;;;-143.84;43.80
6032;BME280;3044;43.232;27.972;2023-03-31T00:39:17;45214.72;;;-143.84;44.22
6032;BME280;3044;43.232;27.972;2023-03-31T00:41:44;45157.59;;;-143.84;44.12
6032;BME280;3044;43.232;27.972;2023-03-31T00:44:14;45167.13;;;-143.84;44.02
6032;BME280;3044;43.232;27.972;2023-03-31T00:46:46;45197.59;;;-143.84;43.68
6032;BME280;3044;43.232;27.972;2023-03-31T00:49:19;45165.22;;;-143.84;44.09
6032;BME280;3044;43.232;27.972;2023-03-31T00:51:51;45176.66;;;-143.84;44.34
6032;BME280;3044;43.232;27.972;2023-03-31T00:54:20;45176.66;;;-143.84;44.09
6032;BME280;3044;43.232;27.972;2023-03-31T00:56:50;45189.97;;;-143.84;44.25
6032;BME280;3044;43.232;27.972;2023-03-31T00:59:23;45189.97;;;-143.84;44.27
6032;BME280;3044;43.232;27.972;2023-03-31T01:01:53;45178.56;;;-143.84;44.10
6032;BME280;3044;43.232;27.972;2023-03-31T01:04:24;45203.31;;;-143.84;44.03
6032;BME280;3044;43.232;27.972;2023-03-31T01:06:58;45193.78;;;-143.84;43.91
6032;BME280;3044;43.232;27.972;2023-03-31T01:09:29;45205.22;;;-143.84;43.54
6032;BME280;3044;43.232;27.972;2023-03-31T01:12:02;45186.16;;;-143.84;43.62
6032;BME280;3044;43.232;27.972;2023-03-31T01:14:30;45191.88;;;-143.84;43.62
6032;BME280;3044;43.232;27.972;2023-03-31T01:16:58;45186.16;;;-143.84;43.47
6032;BME280;3044;43.232;27.972;2023-03-31T01:19:34;45170.94;;;-143.84;43.49
6032;BME280;3044;43.232;27.972;2023-03-31T01:22:43;45188.06;;;-143.84;43.57
6032;BME280;3044;43.232;27.972;2023-03-31T01:28:24;45186.16;;;-143.84;43.53
6032;BME280;3044;43.232;27.972;2023-03-31T01:40:07;45167.13;;;-143.84;43.63
6032;BME280;3044;43.232;27.972;2023-03-31T01:42:38;45195.69;;;-143.84;44.07
6032;BME280;3044;43.232;27.972;2023-03-31T01:45:15;45199.50;;;-143.84;43.73
6032;BME280;3044;43.232;27.972;2023-03-31T01:47:50;45199.50;;;-143.84;43.98
6032;BME280;3044;43.232;27.972;2023-03-31T01:50:24;45178.56;;;-143.84;44.30
6032;BME280;3044;43.232;27.972;2023-03-31T01:52:57;45169.03;;;-143.84;44.01
6032;BME280;3044;43.232;27.972;2023-03-31T01:55:34;45180.47;;;-143.84;44.16
6032;BME280;3044;43.232;27.972;2023-03-31T01:58:08;45191.88;;;-143.84;44.28
6032;BME280;3044;43.232;27.972;2023-03-31T02:00:40;45197.59;;;-143.84;44.36
6032;BME280;3044;43.232;27.972;2023-03-31T02:03:14;45174.75;;;-143.84;44.55
6032;BME280;3044;43.232;27.972;2023-03-31T02:05:46;45170.94;;;-143.84;44.47
6032;BME280;3044;43.232;27.972;2023-03-31T02:08:18;45189.97;;;-143.84;44.72
6032;BME280;3044;43.232;27.972;2023-03-31T02:10:50;45176.66;;;-143.84;44.36
6032;BME280;3044;43.232;27.972;2023-03-31T02:13:19;45195.69;;;-143.84;44.49
6032;BME280;3044;43.232;27.972;2023-03-31T02:15:50;45193.78;;;-143.84;44.44
6032;BME280;3044;43.232;27.972;2023-03-31T02:18:22;45207.13;;;-143.84;44.81
6032;BME280;3044;43.232;27.972;2023-03-31T02:20:53;45167.13;;;-143.84;44.70
6032;BME280;3044;43.232;27.972;2023-03-31T02:23:25;45169.03;;;-143.84;45.04
6032;BME280;3044;43.232;27.972;2023-03-31T02:26:00;45174.75;;;-143.84;44.93
6032;BME280;3044;43.232;27.972;2023-03-31T02:28:29;45205.22;;;-143.84;45.07
6032;BME280;3044;43.232;27.972;2023-03-31T02:31:05;45214.72;;;-143.84;44.94
6032;BME280;3044;43.232;27.972;2023-03-31T02:33:33;45216.63;;;-143.84;45.10
6032;BME280;3044;43.232;27.972;2023-03-31T02:36:01;45199.50;;;-143.84;45.11
6032;BME280;3044;43.232;27.972;2023-03-31T02:38:30;45159.50;;;-143.84;45.19
6032;BME280;3044;43.232;27.972;2023-03-31T02:41:00;45203.31;;;-143.84;44.96
6032;BME280;3044;43.232;27.972;2023-03-31T02:43:27;45184.25;;;-143.84;45.08
6032;BME280;3044;43.232;27.972;2023-03-31T02:45:54;45169.03;;;-143.84;45.27
6032;BME280;3044;43.232;27.972;2023-03-31T02:48:24;45199.50;;;-143.84;45.05
6032;BME280;3044;43.232;27.972;2023-03-31T02:54:02;45178.56;;;-143.84;45.02
6032;BME280;3044;43.232;27.972;2023-03-31T02:56:45;45176.66;;;-143.84;44.79
6032;BME280;3044;43.232;27.972;2023-03-31T02:59:23;45207.13;;;-143.84;45.17
6032;BME280;3044;43.232;27.972;2023-03-31T03:02:06;45201.41;;;-143.84;44.63
6032;BME280;3044;43.232;27.972;2023-03-31T03:04:59;45163.31;;;-143.84;44.55
6032;BME280;3044;43.232;27.972;2023-03-31T03:07:34;45184.25;;;-143.84;44.66
6032;BME280;3044;43.232;27.972;2023-03-31T03:10:08;45199.50;;;-143.84;44.52
6032;BME280;3044;43.232;27.972;2023-03-31T03:12:43;45170.94;;;-143.84;44.53
6032;BME280;3044;43.232;27.972;2023-03-31T03:15:18;45191.88;;;-143.84;44.46
6032;BME280;3044;43.232;27.972;2023-03-31T03:17:48;45174.75;;;-143.84;44.13
6032;BME280;3044;43.232;27.972;2023-03-31T03:20:18;45195.69;;;-143.84;44.47
6032;BME280;3044;43.232;27.972;2023-03-31T03:22:46;45210.94;;;-143.84;44.44
6032;BME280;3044;43.232;27.972;2023-03-31T03:25:14;45176.66;;;-143.84;44.33
6032;BME280;3044;43.232;27.972;2023-03-31T03:27:44;45212.84;;;-143.84;44.81
6032;BME280;3044;43.232;27.972;2023-03-31T03:30:12;45189.97;;;-143.84;44.75
6032;BME280;3044;43.232;27.972;2023-03-31T03:32:39;45197.59;;;-143.84;45.07
6032;BME280;3044;43.232;27.972;2023-03-31T03:35:08;45161.41;;;-143.84;44.92
6032;BME280;3044;43.232;27.972;2023-03-31T03:37:36;45203.31;;;-143.84;44.78
6032;BME280;3044;43.232;27.972;2023-03-31T03:40:04;45195.69;;;-143.84;44.97
6032;BME280;3044;43.232;27.972;2023-03-31T03:42:31;45165.22;;;-143.84;45.35
6032;BME280;3044;43.232;27.972;2023-03-31T03:45:00;45239.50;;;-143.84;45.54
6032;BME280;3044;43.232;27.972;2023-03-31T03:47:27;45182.38;;;-143.84;45.83
6032;BME280;3044;43.232;27.972;2023-03-31T03:49:54;45180.47;;;-143.84;46.05
6032;BME280;3044;43.232;27.972;2023-03-31T03:52:21;45207.13;;;-143.84;45.98
6032;BME280;3044;43.232;27.972;2023-03-31T03:54:48;45176.66;;;-143.84;45.94
6032;BME280;3044;43.232;27.972;2023-03-31T03:57:16;45197.59;;;-143.84;46.06
6032;BME280;3044;43.232;27.972;2023-03-31T03:59:43;45191.88;;;-143.84;46.41
6032;BME280;3044;43.232;27.972;2023-03-31T04:02:11;45159.50;;;-143.84;46.01
6032;BME280;3044;43.232;27.972;2023-03-31T04:04:39;45188.06;;;-143.84;46.63
6032;BME280;3044;43.232;27.972;2023-03-31T04:07:06;45220.44;;;-143.84;47.02
6032;BME280;3044;43.232;27.972;2023-03-31T04:09:33;45165.22;;;-143.84;47.40
6032;BME280;3044;43.232;27.972;2023-03-31T04:12:00;45174.75;;;-143.84;47.43
6032;BME280;3044;43.232;27.972;2023-03-31T04:14:27;45167.13;;;-143.84;47.52
6032;BME280;3044;43.232;27.972;2023-03-31T04:16:54;45199.50;;;-143.84;47.30
6032;BME280;3044;43.232;27.972;2023-03-31T04:19:24;45174.75;;;-143.84;47.84
6032;BME280;3044;43.232;27.972;2023-03-31T04:21:52;45176.66;;;-143.84;47.96
6032;BME280;3044;43.232;27.972;2023-03-31T04:24:23;45174.75;;;-143.84;47.89
6032;BME280;3044;43.232;27.972;2023-03-31T04:26:57;45176.66;;;-143.84;48.40
6032;BME280;3044;43.232;27.972;2023-03-31T04:29:25;45201.41;;;-143.84;48.48
6032;BME280;3044;43.232;27.972;2023-03-31T04:31:53;45197.59;;;-143.84;48.49
6032;BME280;3044;43.232;27.972;2023-03-31T04:34:25;45167.13;;;-143.84;48.76
6032;BME280;3044;43.232;27.972;2023-03-31T04:36:59;45174.75;;;-143.84;48.84
6032;BME280;3044;43.232;27.972;2023-03-31T04:39:27;45174.75;;;-143.84;48.79
6032;BME280;3044;43.232;27.972;2023-03-31T04:41:57;45167.13;;;-143.84;49.14
6032;BME280;3044;43.232;27.972;2023-03-31T04:44:24;45174.75;;;-143.84;49.20
6032;BME280;3044;43.232;27.972;2023-03-31T04:46:52;45180.47;;;-143.84;49.00
6032;BME280;3044;43.232;27.972;2023-03-31T04:49:19;45178.56;;;-143.84;49.14
6032;BME280;3044;43.232;27.972;2023-03-31T04:51:47;45165.22;;;-143.84;48.85
6032;BME280;3044;43.232;27.972;2023-03-31T04:54:15;45155.69;;;-143.84;48.45
6032;BME280;3044;43.232;27.972;2023-03-31T04:56:42;45184.25;;;-143.84;47.69
6032;BME280;3044;43.232;27.972;2023-03-31T04:59:10;45180.47;;;-143.84;47.52
6032;BME280;3044;43.232;27.972;2023-03-31T05:01:37;45178.56;;;-143.84;47.87
6032;BME280;3044;43.232;27.972;2023-03-31T05:04:09;45163.31;;;-143.84;46.47
6032;BME280;3044;43.232;27.972;2023-03-31T05:06:37;45186.16;;;-143.84;46.66
6032;BME280;3044;43.232;27.972;2023-03-31T05:09:05;45144.28;;;-143.84;45.83
6032;BME280;3044;43.232;27.972;2023-03-31T05:11:34;45176.66;;;-143.84;45.21
6032;BME280;3044;43.232;27.972;2023-03-31T05:14:01;45167.13;;;-143.84;45.05
6032;BME280;3044;43.232;27.972;2023-03-31T05:16:28;45150.00;;;-143.84;45.52
6032;BME280;3044;43.232;27.972;2023-03-31T05:18:56;45172.84;;;-143.84;45.76
6032;BME280;3044;43.232;27.972;2023-03-31T05:21:23;45153.81;;;-143.84;44.81
6032;BME280;3044;43.232;27.972;2023-03-31T05:23:51;45163.31;;;-143.84;45.15
6032;BME280;3044;43.232;27.972;2023-03-31T05:26:20;45176.66;;;-143.84;45.36
6032;BME280;3044;43.232;27.972;2023-03-31T05:28:49;45142.38;;;-143.84;45.33
6032;BME280;3044;43.232;27.972;2023-03-31T05:31:17;45170.94;;;-143.84;45.99
6032;BME280;3044;43.232;27.972;2023-03-31T05:33:44;45142.38;;;-143.84;45.75
6032;BME280;3044;43.232;27.972;2023-03-31T05:36:13;45148.09;;;-143.84;45.48
6032;BME280;3044;43.232;27.972;2023-03-31T05:38:41;45148.09;;;-143.84;45.09
6032;BME280;3044;43.232;27.972;2023-03-31T05:41:09;45151.91;;;-143.84;45.36
6032;BME280;3044;43.232;27.972;2023-03-31T05:43:38;45138.56;;;-143.84;45.58
6032;BME280;3044;43.232;27.972;2023-03-31T05:46:06;45167.13;;;-143.84;45.40
6032;BME280;3044;43.232;27.972;2023-03-31T05:48:34;45151.91;;;-143.84;45.43
6032;BME280;3044;43.232;27.972;2023-03-31T05:51:02;45193.78;;;-143.84;45.21
6032;BME280;3044;43.232;27.972;2023-03-31T05:53:30;45161.41;;;-143.84;46.01
6032;BME280;3044;43.232;27.972;2023-03-31T05:55:57;45155.69;;;-143.84;45.39
6032;BME280;3044;43.232;27.972;2023-03-31T05:58:26;45148.09;;;-143.84;45.75
6032;BME280;3044;43.232;27.972;2023-03-31T06:01:02;45134.75;;;-143.84;45.55
6032;BME280;3044;43.232;27.972;2023-03-31T06:03:31;45130.94;;;-143.84;45.64
6032;BME280;3044;43.232;27.972;2023-03-31T06:05:59;45174.75;;;-143.84;44.19
6032;BME280;3044;43.232;27.972;2023-03-31T06:08:26;45146.19;;;-143.84;44.11
6032;BME280;3044;43.232;27.972;2023-03-31T06:10:53;45138.56;;;-143.84;43.18
6032;BME280;3044;43.232;27.972;2023-03-31T06:13:21;45159.50;;;-143.84;43.43
6032;BME280;3044;43.232;27.972;2023-03-31T06:15:52;45157.59;;;-143.84;42.65
6032;BME280;3044;43.232;27.972;2023-03-31T06:18:26;45142.38;;;-143.84;42.50
6032;BME280;3044;43.232;27.972;2023-03-31T06:20:57;45138.56;;;-143.84;42.31
6032;BME280;3044;43.232;27.972;2023-03-31T06:23:24;45132.84;;;-143.84;42.31
6032;BME280;3044;43.232;27.972;2023-03-31T06:25:52;45146.19;;;-143.84;41.88
6032;BME280;3044;43.232;27.972;2023-03-31T06:28:20;45153.81;;;-143.84;41.98
6032;BME280;3044;43.232;27.972;2023-03-31T06:30:47;45132.84;;;-143.84;41.68
6032;BME280;3044;43.232;27.972;2023-03-31T06:33:14;45134.75;;;-143.84;41.43
6032;BME280;3044;43.232;27.972;2023-03-31T06:35:43;45127.13;;;-143.84;41.43
6032;BME280;3044;43.232;27.972;2023-03-31T06:38:10;45117.63;;;-143.84;41.95
6032;BME280;3044;43.232;27.972;2023-03-31T06:40:37;45127.13;;;-143.84;41.50
6032;BME280;3044;43.232;27.972;2023-03-31T06:43:05;45155.69;;;-143.84;41.72
6032;BME280;3044;43.232;27.972;2023-03-31T06:45:32;45129.03;;;-143.84;41.74
6032;BME280;3044;43.232;27.972;2023-03-31T06:47:59;45132.84;;;-143.84;41.57
6032;BME280;3044;43.232;27.972;2023-03-31T06:50:26;45136.66;;;-143.84;41.63
6032;BME280;3044;43.232;27.972;2023-03-31T06:52:55;45140.47;;;-143.84;41.47
6032;BME280;3044;43.232;27.972;2023-03-31T06:55:22;45136.66;;;-143.84;41.58
6032;BME280;3044;43.232;27.972;2023-03-31T06:57:49;45117.63;;;-143.84;41.55
6032;BME280;3044;43.232;27.972;2023-03-31T07:00:17;45136.66;;;-143.84;41.64
6032;BME280;3044;43.232;27.972;2023-03-31T07:02:44;45151.91;;;-143.84;41.59
6032;BME280;3044;43.232;27.972;2023-03-31T07:05:11;45159.50;;;-143.84;41.69
6032;BME280;3044;43.232;27.972;2023-03-31T07:07:38;45161.41;;;-143.84;41.63
6032;BME280;3044;43.232;27.972;2023-03-31T07:10:07;45140.47;;;-143.84;41.54
6032;BME280;3044;43.232;27.972;2023-03-31T07:12:34;45130.94;;;-143.84;41.65
6032;BME280;3044;43.232;27.972;2023-03-31T07:15:02;45129.03;;;-143.84;41.95
6032;BME280;3044;43.232;27.972;2023-03-31T07:17:29;45146.19;;;-143.84;41.48
6032;BME280;3044;43.232;27.972;2023-03-31T07:19:56;45144.28;;;-143.84;41.85
6032;BME280;3044;43.232;27.972;2023-03-31T07:22:24;45138.56;;;-143.84;41.20
6032;BME280;3044;43.232;27.972;2023-03-31T07:24:52;45148.09;;;-143.84;41.65
6032;BME280;3044;43.232;27.972;2023-03-31T07:27:20;45150.00;;;-143.84;41.88
6032;BME280;3044;43.232;27.972;2023-03-31T07:29:47;45134.75;;;-143.84;41.41
6032;BME280;3044;43.232;27.972;2023-03-31T07:32:15;45146.19;;;-143.84;41.86
6032;BME280;3044;43.232;27.972;2023-03-31T07:34:43;45151.91;;;-143.84;41.28
6032;BME280;3044;43.232;27.972;2023-03-31T07:37:10;45142.38;;;-143.84;41.33
6032;BME280;3044;43.232;27.972;2023-03-31T07:39:37;45129.03;;;-143.84;41.37
6032;BME280;3044;43.232;27.972;2023-03-31T07:42:05;45174.75;;;-143.84;41.42
6032;BME280;3044;43.232;27.972;2023-03-31T07:44:33;45146.19;;;-143.84;41.26
6032;BME280;3044;43.232;27.972;2023-03-31T07:47:01;45115.72;;;-143.84;41.26
6032;BME280;3044;43.232;27.972;2023-03-31T07:49:30;45134.75;;;-143.84;41.33
6032;BME280;3044;43.232;27.972;2023-03-31T07:51:58;45132.84;;;-143.84;41.33
6032;BME280;3044;43.232;27.972;2023-03-31T07:54:25;45148.09;;;-143.84;41.30
6032;BME280;3044;43.232;27.972;2023-03-31T07:56:52;45150.00;;;-143.84;41.34
6032;BME280;3044;43.232;27.972;2023-03-31T07:59:19;45153.81;;;-143.84;41.15
6032;BME280;3044;43.232;27.972;2023-03-31T08:01:48;45136.66;;;-143.84;41.57
6032;BME280;3044;43.232;27.972;2023-03-31T08:04:15;45140.47;;;-143.84;41.54
6032;BME280;3044;43.232;27.972;2023-03-31T08:06:42;45129.03;;;-143.84;41.34
6032;BME280;3044;43.232;27.972;2023-03-31T08:09:10;45132.84;;;-143.84;40.92
6032;BME280;3044;43.232;27.972;2023-03-31T08:11:37;45142.38;;;-143.84;41.17
6032;BME280;3044;43.232;27.972;2023-03-31T08:14:04;45140.47;;;-143.84;40.90
6032;BME280;3044;43.232;27.972;2023-03-31T08:16:31;45151.91;;;-143.84;41.11
6032;BME280;3044;43.232;27.972;2023-03-31T08:19:00;45117.63;;;-143.84;41.33
6032;BME280;3044;43.232;27.972;2023-03-31T08:21:28;45157.59;;;-143.84;41.63
6032;BME280;3044;43.232;27.972;2023-03-31T08:23:55;45144.28;;;-143.84;41.93
6032;BME280;3044;43.232;27.972;2023-03-31T08:26:23;45150.00;;;-143.84;42.04
6032;BME280;3044;43.232;27.972;2023-03-31T08:28:51;45123.34;;;-143.84;42.39
6032;BME280;3044;43.232;27.972;2023-03-31T08:31:19;45130.94;;;-143.84;42.76
6032;BME280;3044;43.232;27.972;2023-03-31T08:33:48;45151.91;;;-143.84;43.26
6032;BME280;3044;43.232;27.972;2023-03-31T08:36:17;45153.81;;;-143.84;44.28
6032;BME280;3044;43.232;27.972;2023-03-31T08:38:44;45129.03;;;-143.84;43.90
6032;BME280;3044;43.232;27.972;2023-03-31T08:41:26;45144.28;;;-143.84;44.62
6032;BME280;3044;43.232;27.972;2023-03-31T08:43:57;45146.19;;;-143.84;45.86
6032;BME280;3044;43.232;27.972;2023-03-31T08:46:28;45140.47;;;-143.84;47.97
6032;BME280;3044;43.232;27.972;2023-03-31T08:48:58;45144.28;;;-143.84;49.93
6032;BME280;3044;43.232;27.972;2023-03-31T08:51:31;45140.47;;;-143.84;52.58
6032;BME280;3044;43.232;27.972;2023-03-31T08:54:01;45121.44;;;-143.84;54.75
6032;BME280;3044;43.232;27.972;2023-03-31T08:56:31;45161.41;;;-143.84;57.95
6032;BME280;3044;43.232;27.972;2023-03-31T08:59:03;45140.47;;;-143.84;60.78
6032;BME280;3044;43.232;27.972;2023-03-31T09:01:36;45151.91;;;-143.84;62.34
6032;BME280;3044;43.232;27.972;2023-03-31T09:04:22;45169.03;;;-143.84;63.90
6032;BME280;3044;43.232;27.972;2023-03-31T09:06:57;45142.38;;;-143.84;64.78
6032;BME280;3044;43.232;27.972;2023-03-31T09:09:35;45153.81;;;-143.84;65.90
6032;BME280;3044;43.232;27.972;2023-03-31T09:12:09;45159.50;;;-143.84;67.41
6032;BME280;3044;43.232;27.972;2023-03-31T09:14:40;45142.38;;;-143.84;68.06
6032;BME280;3044;43.232;27.972;2023-03-31T09:17:15;45144.28;;;-143.84;69.08
6032;BME280;3044;43.232;27.972;2023-03-31T09:19:48;45102.38;;;-143.84;70.18
6032;BME280;3044;43.232;27.972;2023-03-31T09:22:22;45170.94;;;-143.84;69.59
6032;BME280;3044;43.232;27.972;2023-03-31T09:24:55;45129.03;;;-143.84;70.06
6032;BME280;3044;43.232;27.972;2023-03-31T09:27:27;45153.81;;;-143.84;70.46
6032;BME280;3044;43.232;27.972;2023-03-31T09:29:57;45153.81;;;-143.84;71.47
6032;BME280;3044;43.232;27.972;2023-03-31T09:32:28;45132.84;;;-143.84;72.25
6032;BME280;3044;43.232;27.972;2023-03-31T09:34:59;45140.47;;;-143.84;72.84
6032;BME280;3044;43.232;27.972;2023-03-31T09:37:30;45132.84;;;-143.84;73.53
6032;BME280;3044;43.232;27.972;2023-03-31T09:39:59;45130.94;;;-143.84;73.70
6032;BME280;3044;43.232;27.972;2023-03-31T09:42:32;45092.88;;;-143.84;75.38
6032;BME280;3044;43.232;27.972;2023-03-31T09:44:59;45136.66;;;-143.84;75.88
6032;BME280;3044;43.232;27.972;2023-03-31T09:47:31;45104.28;;;-143.84;75.81
6032;BME280;3044;43.232;27.972;2023-03-31T09:49:59;45081.44;;;-143.84;77.35
6032;BME280;3044;43.232;27.972;2023-03-31T09:52:30;45096.66;;;-143.84;78.23
6032;BME280;3044;43.232;27.972;2023-03-31T09:54:59;45035.75;;;-143.84;79.45
6032;BME280;3044;43.232;27.972;2023-03-31T09:57:31;44988.13;;;-143.84;80.17
6032;BME280;3044;43.232;27.972;2023-03-31T10:00:04;44911.97;;;-143.84;81.41
6032;BME280;3044;43.232;27.972;2023-03-31T10:02:41;44824.38;;;-143.84;81.76
6032;BME280;3044;43.232;27.972;2023-03-31T10:05:25;44752.03;;;-143.84;82.47
6032;BME280;3044;43.232;27.972;2023-03-31T10:08:16;44698.72;;;-143.84;82.92
6032;BME280;3044;43.232;27.972;2023-03-31T10:10:48;44626.38;;;-143.84;83.11
6032;BME280;3044;43.232;27.972;2023-03-31T10:13:18;44293.19;;;-143.84;84.19
6032;BME280;3044;43.232;27.972;2023-03-31T10:15:46;44175.16;;;-143.84;84.88
6032;BME280;3044;43.232;27.972;2023-03-31T10:18:14;44026.69;;;-143.84;85.47
6032;BME280;3044;43.232;27.972;2023-03-31T10:20:44;44009.56;;;-143.84;85.40
6032;BME280;3044;43.232;27.972;2023-03-31T10:23:17;43939.13;;;-143.84;85.63
6032;BME280;3044;43.232;27.972;2023-03-31T10:25:49;43849.66;;;-143.84;86.45
6032;BME280;3044;43.232;27.972;2023-03-31T10:28:18;44064.75;;;-143.84;84.94
6032;BME280;3044;43.232;27.972;2023-03-31T10:30:47;43990.53;;;-143.84;85.94
6032;BME280;3044;43.232;27.972;2023-03-31T10:33:18;43908.66;;;-143.84;85.93
6032;BME280;3044;43.232;27.972;2023-03-31T10:35:47;43864.88;;;-143.84;86.51
6032;BME280;3044;43.232;27.972;2023-03-31T10:38:23;43893.44;;;-143.84;86.55
6032;BME280;3044;43.232;27.972;2023-03-31T10:40:54;43889.63;;;-143.84;85.79
6032;BME280;3044;43.232;27.972;2023-03-31T10:43:26;43982.91;;;-143.84;85.50
6032;BME280;3044;43.232;27.972;2023-03-31T10:45:56;43942.94;;;-143.84;85.84
6032;BME280;3044;43.232;27.972;2023-03-31T10:48:26;43929.59;;;-143.84;86.19
6032;BME280;3044;43.232;27.972;2023-03-31T10:50:58;43895.34;;;-143.84;85.85
6032;BME280;3044;43.232;27.972;2023-03-31T10:53:27;43912.47;;;-143.84;86.19
6032;BME280;3044;43.232;27.972;2023-03-31T10:56:06;43971.47;;;-143.84;85.94
6032;BME280;3044;43.232;27.972;2023-03-31T10:58:46;43946.75;;;-143.84;85.78
6032;BME280;3044;43.232;27.972;2023-03-31T11:01:26;43948.63;;;-143.84;85.84
6032;BME280;3044;43.232;27.972;2023-03-31T11:06:57;43880.13;;;-143.84;86.27
6032;BME280;3044;43.232;27.972;2023-03-31T11:09:38;44013.38;;;-143.84;85.31
6032;BME280;3044;43.232;27.972;2023-03-31T11:12:13;44055.25;;;-143.84;85.11
6032;BME280;3044;43.232;27.972;2023-03-31T11:14:51;44104.72;;;-143.84;84.97
6032;BME280;3044;43.232;27.972;2023-03-31T11:17:29;44180.88;;;-143.84;84.49
6032;BME280;3044;43.232;27.972;2023-03-31T11:20:07;44409.34;;;-143.84;84.17
6032;BME280;3044;43.232;27.972;2023-03-31T11:22:43;44422.66;;;-143.84;83.95
6032;BME280;3044;43.232;27.972;2023-03-31T11:25:27;44274.16;;;-143.84;84.30
6032;BME280;3044;43.232;27.972;2023-03-31T11:28:17;44291.28;;;-143.84;84.26
6032;BME280;3044;43.232;27.972;2023-03-31T11:30:50;44466.44;;;-143.84;83.80
6032;BME280;3044;43.232;27.972;2023-03-31T11:33:45;44447.41;;;-143.84;83.89
6032;BME280;3044;43.232;27.972;2023-03-31T11:36:29;44403.63;;;-143.84;83.98
6032;BME280;3044;43.232;27.972;2023-03-31T11:39:15;44489.28;;;-143.84;83.67
6032;BME280;3044;43.232;27.972;2023-03-31T11:41:49;44841.53;;;-143.84;81.61
6032;BME280;3044;43.232;27.972;2023-03-31T11:44:18;44866.28;;;-143.84;81.67
6032;BME280;3044;43.232;27.972;2023-03-31T11:46:49;44767.25;;;-143.84;82.55
6032;BME280;3044;43.232;27.972;2023-03-31T11:49:20;44913.88;;;-143.84;81.61
6032;BME280;3044;43.232;27.972;2023-03-31T11:51:53;44953.88;;;-143.84;80.49
6032;BME280;3044;43.232;27.972;2023-03-31T11:54:26;44971.00;;;-143.84;80.38
6032;BME280;3044;43.232;27.972;2023-03-31T11:56:56;44860.56;;;-143.84;81.94
6032;BME280;3044;43.232;27.972;2023-03-31T11:59:28;44799.63;;;-143.84;82.22
6032;BME280;3044;43.232;27.972;2023-03-31T12:02:03;44788.22;;;-143.84;82.27
6032;BME280;3044;43.232;27.972;2023-03-31T12:04:40;44984.31;;;-143.84;80.73
6032;BME280;3044;43.232;27.972;2023-03-31T12:07:18;44950.06;;;-143.84;80.93
6032;BME280;3044;43.232;27.972;2023-03-31T12:09:53;44900.53;;;-143.84;81.32
6032;BME280;3044;43.232;27.972;2023-03-31T12:12:31;44908.16;;;-143.84;81.12
6032;BME280;3044;43.232;27.972;2023-03-31T12:15:07;44932.91;;;-143.84;80.81
6032;BME280;3044;43.232;27.972;2023-03-31T12:17:40;45022.41;;;-143.84;79.59
6032;BME280;3044;43.232;27.972;2023-03-31T12:20:14;45018.59;;;-143.84;79.76
6032;BME280;3044;43.232;27.972;2023-03-31T12:22:44;44984.31;;;-143.84;79.87
6032;BME280;3044;43.232;27.972;2023-03-31T12:25:14;44974.81;;;-143.84;79.49
6032;BME280;3044;43.232;27.972;2023-03-31T12:27:45;45030.03;;;-143.84;77.95
6032;BME280;3044;43.232;27.972;2023-03-31T12:30:17;45068.13;;;-143.84;76.97
6032;BME280;3044;43.232;27.972;2023-03-31T12:32:56;45033.84;;;-143.84;78.20
6032;BME280;3044;43.232;27.972;2023-03-31T12:35:28;45087.16;;;-143.84;76.80
6032;BME280;3044;43.232;27.972;2023-03-31T12:38:10;45056.69;;;-143.84;77.06
6032;BME280;3044;43.232;27.972;2023-03-31T12:40:47;45083.34;;;-143.84;75.83
6032;BME280;3044;43.232;27.972;2023-03-31T12:43:36;45098.56;;;-143.84;75.49
6032;BME280;3044;43.232;27.972;2023-03-31T12:46:20;45110.00;;;-143.84;76.06
6032;BME280;3044;43.232;27.972;2023-03-31T12:49:01;45056.69;;;-143.84;77.19
6032;BME280;3044;43.232;27.972;2023-03-31T12:51:51;45106.19;;;-143.84;77.77
6032;BME280;3044;43.232;27.972;2023-03-31T12:54:34;45050.97;;;-143.84;77.34
6032;BME280;3044;43.232;27.972;2023-03-31T12:57:13;45066.22;;;-143.84;77.10
6032;BME280;3044;43.232;27.972;2023-03-31T12:59:43;45037.66;;;-143.84;77.85
6032;BME280;3044;43.232;27.972;2023-03-31T13:02:20;45073.81;;;-143.84;78.11
6032;BME280;3044;43.232;27.972;2023-03-31T13:04:48;45060.50;;;-143.84;78.20
6032;BME280;3044;43.232;27.972;2023-03-31T13:07:34;45068.13;;;-143.84;78.14
6032;BME280;3044;43.232;27.972;2023-03-31T13:10:26;45064.31;;;-143.84;78.29
6032;BME280;3044;43.232;27.972;2023-03-31T13:13:01;45026.22;;;-143.84;78.60
6032;BME280;3044;43.232;27.972;2023-03-31T13:15:31;45033.84;;;-143.84;79.22
6032;BME280;3044;43.232;27.972;2023-03-31T13:18:00;45005.28;;;-143.84;78.85
6032;BME280;3044;43.232;27.972;2023-03-31T13:20:38;45003.38;;;-143.84;79.37
6032;BME280;3044;43.232;27.972;2023-03-31T13:23:15;45003.38;;;-143.84;79.51
6032;BME280;3044;43.232;27.972;2023-03-31T13:25:45;44991.94;;;-143.84;79.22
6032;BME280;3044;43.232;27.972;2023-03-31T13:28:23;45028.13;;;-143.84;78.77
6032;BME280;3044;43.232;27.972;2023-03-31T13:30:58;44990.03;;;-143.84;78.75